Time;durP1;ratioP1;P1;durP2;ratioP2;P2;SDS_P1;SDS_P2;PMS_P1;PMS_P2;Temp;Humidity;BMP_temperature;BMP_pressure;BME280_temperature;BME280_humidity;BME280_pressure;Samples;Min_cycle;Max_cycle;Signal;HPM_P1;HPM_P2
2023/03/17 00:02:52;;;;;;;7.20;6.50;;;4.40;54.60;;;;;;6295633;27;20739;-83
2023/03/17 00:05:59;;;;;;;6.43;5.87;;;4.40;54.50;;;;;;6293857;28;20259;-84
2023/03/17 00:09:03;;;;;;;7.57;6.13;;;4.40;54.50;;;;;;6291934;28;20244;-83
2023/03/17 00:12:10;;;;;;;7.23;6.20;;;4.40;54.80;;;;;;6297746;28;20236;-81
2023/03/17 00:15:16;;;;;;;8.10;6.30;;;4.30;54.70;;;;;;6290744;28;20378;-83
2023/03/17 00:18:21;;;;;;;7.47;6.97;;;4.30;54.80;;;;;;6289935;28;20298;-84
2023/03/17 00:21:29;;;;;;;7.63;6.93;;;4.30;55.00;;;;;;6297614;27;20244;-82
2023/03/17 00:24:32;;;;;;;7.37;5.97;;;4.30;54.90;;;;;;6292324;28;20232;-83
2023/03/17 00:27:35;;;;;;;6.30;5.97;;;4.20;55.00;;;;;;6292547;28;20352;-82
2023/03/17 00:30:40;;;;;;;8.03;6.20;;;4.20;55.10;;;;;;6285767;28;20232;-84
2023/03/17 00:33:45;;;;;;;6.53;6.03;;;4.20;55.30;;;;;;6304917;28;20260;-82
2023/03/17 00:36:50;;;;;;;8.93;6.37;;;4.20;55.20;;;;;;6287604;28;20304;-83
2023/03/17 00:39:55;;;;;;;6.90;6.17;;;4.10;55.20;;;;;;6287782;28;20233;-82
2023/03/17 00:43:01;;;;;;;6.73;6.43;;;4.10;55.40;;;;;;6289157;28;20282;-84
2023/03/17 00:46:12;;;;;;;6.80;6.20;;;4.10;55.40;;;;;;6309751;28;20705;-82
2023/03/17 00:49:18;;;;;;;8.77;6.63;;;4.10;55.30;;;;;;6281683;28;20244;-83
2023/03/17 00:52:22;;;;;;;6.30;6.00;;;4.10;55.50;;;;;;6287208;28;20238;-82
2023/03/17 00:55:27;;;;;;;7.37;6.70;;;4.10;55.50;;;;;;6287837;28;20237;-84
2023/03/17 00:58:33;;;;;;;6.37;5.87;;;4.10;55.70;;;;;;6297684;28;20276;-81
2023/03/17 01:01:38;;;;;;;8.63;6.73;;;4.00;55.50;;;;;;6292401;27;20233;-81
2023/03/17 01:04:44;;;;;;;7.57;7.07;;;4.10;55.60;;;;;;6288879;28;20225;-83
2023/03/17 01:07:57;;;;;;;8.23;7.27;;;4.00;55.70;;;;;;6291095;27;20316;-81
2023/03/17 01:11:01;;;;;;;7.37;6.67;;;4.00;55.50;;;;;;6290167;27;20237;-84
2023/03/17 01:14:04;;;;;;;8.03;7.07;;;4.00;55.70;;;;;;6296543;28;20237;-83
2023/03/17 01:17:17;;;;;;;7.77;7.03;;;4.00;55.70;;;;;;6288893;28;20286;-81
2023/03/17 01:20:22;;;;;;;8.67;7.20;;;4.00;55.80;;;;;;6273232;28;20722;-84
2023/03/17 01:23:26;;;;;;;7.00;6.50;;;4.00;55.70;;;;;;6288011;28;20275;-83
2023/03/17 01:26:29;;;;;;;7.87;7.17;;;4.00;55.80;;;;;;6289140;28;20244;-84
2023/03/17 01:29:33;;;;;;;7.67;6.97;;;4.00;55.90;;;;;;6304885;28;20229;-81
2023/03/17 01:32:38;;;;;;;7.73;6.97;;;4.10;55.90;;;;;;6266945;28;20316;-81
2023/03/17 01:35:44;;;;;;;7.97;7.27;;;4.10;55.70;;;;;;6295674;28;20237;-81
2023/03/17 01:38:49;;;;;;;7.53;6.70;;;4.10;55.80;;;;;;6286398;28;20241;-83
2023/03/17 01:41:55;;;;;;;8.00;7.27;;;4.10;56.00;;;;;;6294095;28;20594;-82
2023/03/17 01:45:01;;;;;;;8.77;7.27;;;4.10;56.10;;;;;;6299259;28;20358;-82
2023/03/17 01:48:07;;;;;;;8.00;7.33;;;4.00;56.20;;;;;;6294233;28;20240;-83
2023/03/17 01:51:15;;;;;;;9.30;7.10;;;4.10;56.20;;;;;;6292745;28;20717;-83
2023/03/17 01:54:24;;;;;;;7.53;7.03;;;4.10;56.20;;;;;;6293975;28;20752;-82
2023/03/17 01:57:31;;;;;;;7.73;7.13;;;4.00;56.40;;;;;;6294643;28;20242;-82
2023/03/17 02:00:35;;;;;;;9.03;7.50;;;4.10;56.50;;;;;;6301110;28;20239;-82
2023/03/17 02:03:40;;;;;;;7.60;6.87;;;4.10;56.50;;;;;;6295163;28;20321;-83
2023/03/17 02:06:44;;;;;;;8.30;7.50;;;4.00;56.40;;;;;;6287148;28;20701;-84
2023/03/17 02:10:05;;;;;;;9.57;7.77;;;3.90;56.80;;;;;;6286426;28;20240;-82
2023/03/17 02:13:12;;;;;;;7.87;7.17;;;3.90;56.90;;;;;;6291638;28;20282;-82
2023/03/17 02:16:17;;;;;;;8.90;7.50;;;3.90;56.90;;;;;;6286024;28;20241;-82
2023/03/17 02:19:22;;;;;;;7.87;7.07;;;3.90;56.80;;;;;;6305637;28;20233;-81
2023/03/17 02:22:27;;;;;;;9.97;8.20;;;3.80;57.00;;;;;;6280305;28;20698;-81
2023/03/17 02:25:33;;;;;;;9.17;8.27;;;3.80;57.20;;;;;;6286637;28;20238;-81
2023/03/17 02:28:37;;;;;;;8.87;8.10;;;3.80;57.20;;;;;;6287678;28;20226;-82
2023/03/17 02:31:41;;;;;;;8.40;7.70;;;3.70;57.30;;;;;;6294449;28;20248;-81
2023/03/17 02:34:44;;;;;;;7.87;7.27;;;3.70;57.40;;;;;;6298598;28;20256;-84
2023/03/17 02:37:49;;;;;;;7.93;7.33;;;3.70;57.10;;;;;;6306955;28;20242;-83
2023/03/17 02:40:52;;;;;;;8.60;7.80;;;3.70;57.10;;;;;;6315641;28;20237;-84
2023/03/17 02:43:56;;;;;;;9.53;7.83;;;3.70;57.10;;;;;;6319709;28;20253;-84
2023/03/17 02:47:00;;;;;;;8.10;7.50;;;3.80;57.00;;;;;;6307842;28;20229;-82
2023/03/17 02:50:04;;;;;;;8.57;7.70;;;3.80;56.90;;;;;;6306330;28;20247;-83
2023/03/17 02:53:09;;;;;;;11.17;7.20;;;3.80;56.90;;;;;;6308723;28;20861;-85
2023/03/17 02:56:13;;;;;;;9.20;8.33;;;3.90;57.00;;;;;;6315952;28;20696;-82
2023/03/17 02:59:16;;;;;;;8.63;7.87;;;3.80;57.10;;;;;;6317175;28;20296;-83
2023/03/17 03:02:20;;;;;;;8.03;7.33;;;3.80;56.80;;;;;;6311790;28;20531;-84
2023/03/17 03:05:23;;;;;;;8.93;8.23;;;3.70;57.00;;;;;;6310314;28;20236;-83
2023/03/17 03:08:28;;;;;;;8.57;7.87;;;3.70;56.90;;;;;;6303396;28;20241;-84
2023/03/17 03:11:31;;;;;;;7.70;7.03;;;3.70;56.80;;;;;;6297617;28;20242;-84
2023/03/17 03:14:34;;;;;;;7.73;7.10;;;3.80;57.00;;;;;;6315004;28;20243;-84
2023/03/17 03:17:37;;;;;;;8.63;7.93;;;3.80;57.00;;;;;;6314160;28;20297;-84
2023/03/17 03:20:43;;;;;;;7.80;7.20;;;3.70;56.70;;;;;;6311859;28;20229;-85
2023/03/17 03:23:48;;;;;;;11.97;7.93;;;3.80;56.80;;;;;;6310156;28;20229;-84
2023/03/17 03:26:51;;;;;;;8.67;7.73;;;3.80;56.70;;;;;;6313473;28;20256;-83
2023/03/17 03:29:55;;;;;;;8.40;7.60;;;3.70;56.80;;;;;;6318519;28;20270;-84
2023/03/17 03:32:59;;;;;;;8.13;7.43;;;3.70;56.80;;;;;;6302014;28;20249;-84
2023/03/17 03:36:03;;;;;;;9.33;7.93;;;3.80;56.70;;;;;;6316411;28;20263;-83
2023/03/17 03:39:08;;;;;;;8.13;7.30;;;3.70;56.70;;;;;;6302770;28;20240;-84
2023/03/17 03:42:12;;;;;;;8.07;7.47;;;3.80;56.80;;;;;;6308633;28;20751;-85
2023/03/17 03:45:16;;;;;;;10.13;8.20;;;3.80;56.50;;;;;;6295360;28;20411;-85
2023/03/17 03:48:20;;;;;;;7.93;7.17;;;3.90;56.50;;;;;;6301916;28;20241;-84
2023/03/17 03:51:23;;;;;;;8.33;7.47;;;3.80;56.50;;;;;;6305697;28;20257;-83
2023/03/17 03:54:28;;;;;;;7.83;6.93;;;3.80;56.40;;;;;;6315301;28;20279;-83
2023/03/17 03:57:31;;;;;;;8.33;7.57;;;3.70;56.70;;;;;;6304864;28;20233;-82
2023/03/17 04:00:36;;;;;;;7.93;7.27;;;3.80;56.40;;;;;;6296504;28;20243;-83
2023/03/17 04:03:39;;;;;;;8.57;7.57;;;3.70;56.60;;;;;;6299336;28;20280;-82
2023/03/17 04:06:42;;;;;;;8.37;7.57;;;3.70;56.50;;;;;;6309976;28;20311;-83
2023/03/17 04:09:48;;;;;;;8.00;7.40;;;3.70;56.40;;;;;;6325178;28;20273;-83
2023/03/17 04:12:51;;;;;;;7.87;7.23;;;3.70;56.40;;;;;;6305537;28;20225;-82
2023/03/17 04:15:55;;;;;;;7.60;6.80;;;3.70;56.50;;;;;;6291464;27;20230;-84
2023/03/17 04:18:58;;;;;;;8.17;7.43;;;3.70;56.50;;;;;;6298832;28;20267;-84
2023/03/17 04:22:02;;;;;;;8.17;7.60;;;3.70;56.40;;;;;;6301344;28;20234;-85
2023/03/17 04:25:08;;;;;;;7.70;7.17;;;3.70;56.30;;;;;;6311141;28;20713;-84
2023/03/17 04:28:11;;;;;;;7.30;6.87;;;3.70;56.20;;;;;;6294416;28;20300;-81
2023/03/17 04:31:15;;;;;;;7.83;7.13;;;3.70;56.30;;;;;;6283674;28;20230;-84
2023/03/17 04:34:20;;;;;;;9.07;7.47;;;3.70;56.10;;;;;;6297351;28;20283;-82
2023/03/17 04:37:23;;;;;;;8.47;7.10;;;3.80;56.20;;;;;;6293321;28;20229;-85
2023/03/17 04:40:27;;;;;;;8.00;7.20;;;3.70;56.00;;;;;;6296853;28;20322;-84
2023/03/17 04:43:31;;;;;;;8.20;7.40;;;3.70;56.00;;;;;;6296492;28;20248;-82
2023/03/17 04:46:36;;;;;;;7.60;7.10;;;3.60;55.90;;;;;;6293089;28;20237;-83
2023/03/17 04:49:39;;;;;;;8.20;7.47;;;3.60;55.90;;;;;;6299400;28;20523;-81
2023/03/17 04:52:42;;;;;;;8.03;7.33;;;3.60;56.40;;;;;;6303398;28;20221;-78
2023/03/17 04:55:47;;;;;;;7.10;6.60;;;3.50;56.30;;;;;;6309717;28;20227;-80
2023/03/17 04:58:50;;;;;;;7.90;7.30;;;3.50;56.10;;;;;;6317099;28;20231;-78
2023/03/17 05:01:53;;;;;;;7.30;6.60;;;3.50;55.90;;;;;;6310569;28;20324;-78
2023/03/17 05:04:56;;;;;;;7.70;7.00;;;3.50;56.00;;;;;;6291102;28;20233;-78
2023/03/17 05:07:59;;;;;;;7.47;6.87;;;3.50;55.80;;;;;;6315730;28;20232;-78
2023/03/17 05:11:04;;;;;;;7.37;6.80;;;3.60;56.00;;;;;;6324333;28;20279;-80
2023/03/17 05:14:07;;;;;;;8.30;7.53;;;3.50;55.80;;;;;;6308617;28;20235;-81
2023/03/17 05:17:10;;;;;;;7.17;6.57;;;3.50;55.90;;;;;;6312692;28;20244;-81
2023/03/17 05:20:14;;;;;;;7.47;6.97;;;3.50;55.90;;;;;;6316052;28;20346;-80
2023/03/17 05:23:21;;;;;;;7.50;6.87;;;3.50;55.70;;;;;;6316792;28;20644;-79
2023/03/17 05:26:25;;;;;;;7.50;6.90;;;3.50;55.80;;;;;;6318254;28;20319;-80
2023/03/17 05:29:28;;;;;;;10.63;6.80;;;3.60;55.60;;;;;;6318981;28;20245;-81
2023/03/17 05:32:32;;;;;;;9.90;6.90;;;3.60;55.40;;;;;;6323952;28;20248;-78
2023/03/17 05:35:35;;;;;;;8.20;7.33;;;3.60;55.40;;;;;;6324449;28;20237;-81
2023/03/17 05:38:38;;;;;;;7.50;6.90;;;3.60;55.40;;;;;;6309127;28;20406;-83
2023/03/17 05:41:42;;;;;;;7.43;6.83;;;3.50;55.40;;;;;;6318719;28;20850;-78
2023/03/17 05:44:46;;;;;;;9.10;7.27;;;3.60;55.40;;;;;;6304430;28;20240;-79
2023/03/17 05:47:49;;;;;;;7.43;6.80;;;3.70;55.20;;;;;;6294965;28;20233;-82
2023/03/17 05:50:52;;;;;;;7.37;6.87;;;3.70;55.40;;;;;;6313331;28;20248;-81
2023/03/17 05:53:55;;;;;;;8.07;6.57;;;3.70;55.10;;;;;;6317743;28;20229;-80
2023/03/17 05:57:00;;;;;;;8.77;7.90;;;3.70;54.80;;;;;;6315947;28;20598;-80
2023/03/17 06:00:04;;;;;;;7.97;6.80;;;3.70;55.10;;;;;;6306909;28;20642;-79
2023/03/17 06:03:08;;;;;;;11.67;7.73;;;3.80;54.80;;;;;;6315937;28;20328;-77
2023/03/17 06:06:11;;;;;;;8.63;6.93;;;3.90;54.80;;;;;;6319293;27;20240;-82
2023/03/17 06:09:14;;;;;;;7.27;6.63;;;3.90;54.50;;;;;;6332026;28;20332;-77
2023/03/17 06:12:19;;;;;;;6.97;6.30;;;4.00;54.40;;;;;;6331540;28;20232;-80
2023/03/17 06:15:22;;;;;;;7.40;6.80;;;4.00;54.50;;;;;;6319813;28;20243;-80
2023/03/17 06:18:25;;;;;;;7.80;7.13;;;4.00;54.50;;;;;;6319289;28;20300;-81
2023/03/17 06:21:29;;;;;;;7.00;6.40;;;4.10;54.50;;;;;;6309027;28;20237;-75
2023/03/17 06:24:32;;;;;;;7.13;6.63;;;4.10;54.30;;;;;;6319901;28;20270;-80
2023/03/17 06:27:36;;;;;;;8.27;6.87;;;4.10;54.40;;;;;;6312717;28;20228;-79
2023/03/17 06:30:39;;;;;;;10.67;7.37;;;4.20;53.60;;;;;;6329024;28;20252;-81
2023/03/17 06:33:42;;;;;;;10.60;7.10;;;4.20;54.00;;;;;;6320221;28;20247;-77
2023/03/17 06:36:46;;;;;;;8.10;7.40;;;4.30;54.00;;;;;;6329240;28;20304;-78
2023/03/17 06:39:49;;;;;;;7.67;6.97;;;4.20;53.80;;;;;;6324649;28;20308;-80
2023/03/17 06:42:53;;;;;;;7.47;6.83;;;4.20;53.90;;;;;;6310484;28;20247;-79
2023/03/17 06:45:56;;;;;;;7.43;6.80;;;4.20;54.10;;;;;;6310241;28;20236;-78
2023/03/17 06:49:00;;;;;;;8.87;6.90;;;4.30;53.90;;;;;;6310465;28;20841;-78
2023/03/17 06:52:03;;;;;;;7.30;6.77;;;4.40;53.80;;;;;;6308864;27;20241;-79
2023/03/17 06:55:08;;;;;;;7.23;6.63;;;4.40;53.50;;;;;;6311434;28;20224;-77
2023/03/17 06:58:14;;;;;;;9.03;6.63;;;4.50;53.50;;;;;;6300162;28;20886;-78
2023/03/17 07:01:17;;;;;;;8.03;6.00;;;4.50;53.40;;;;;;6313299;28;20240;-79
2023/03/17 07:04:21;;;;;;;8.83;6.73;;;4.50;53.50;;;;;;6312907;28;20228;-78
2023/03/17 07:07:24;;;;;;;7.47;6.77;;;4.70;53.30;;;;;;6314548;28;20262;-77
2023/03/17 07:10:27;;;;;;;8.90;7.00;;;4.70;53.40;;;;;;6316600;28;20657;-76
2023/03/17 07:13:36;;;;;;;7.60;6.83;;;4.70;52.70;;;;;;6317382;28;20243;-76
2023/03/17 07:16:39;;;;;;;8.60;7.47;;;4.80;52.60;;;;;;6314080;28;20248;-76
2023/03/17 07:19:42;;;;;;;7.27;6.77;;;4.90;52.60;;;;;;6303506;28;20676;-79
2023/03/17 07:22:45;;;;;;;7.63;6.90;;;4.90;52.50;;;;;;6312876;28;20624;-78
2023/03/17 07:25:48;;;;;;;10.43;7.10;;;4.80;52.70;;;;;;6308072;28;20229;-78
2023/03/17 07:28:53;;;;;;;10.60;7.23;;;4.70;52.70;;;;;;6312110;28;20312;-79
2023/03/17 07:31:56;;;;;;;8.43;7.13;;;4.90;52.30;;;;;;6320799;27;20347;-78
2023/03/17 07:34:59;;;;;;;7.10;6.57;;;5.00;52.40;;;;;;6324489;27;20840;-77
2023/03/17 07:38:02;;;;;;;7.33;6.73;;;5.20;51.60;;;;;;6313815;28;20309;-77
2023/03/17 07:41:08;;;;;;;8.43;7.07;;;5.40;51.50;;;;;;6289125;28;20240;-80
2023/03/17 07:44:13;;;;;;;7.30;6.80;;;5.50;51.70;;;;;;6282207;28;20237;-79
2023/03/17 07:47:16;;;;;;;7.37;6.77;;;5.60;51.70;;;;;;6305002;28;20237;-75
2023/03/17 07:50:22;;;;;;;7.53;6.67;;;5.70;51.20;;;;;;6317234;27;20700;-79
2023/03/17 07:53:25;;;;;;;7.50;6.80;;;5.70;50.90;;;;;;6313733;27;20236;-77
2023/03/17 07:56:28;;;;;;;7.17;6.50;;;5.80;50.70;;;;;;6314624;28;20274;-78
2023/03/17 07:59:33;;;;;;;7.97;6.97;;;5.90;50.30;;;;;;6323107;28;20229;-78
2023/03/17 08:02:38;;;;;;;10.40;7.90;;;5.80;50.70;;;;;;6312766;28;20233;-78
2023/03/17 08:05:41;;;;;;;7.30;6.77;;;5.90;50.60;;;;;;6309012;28;20852;-79
2023/03/17 08:08:45;;;;;;;7.77;6.90;;;6.00;50.40;;;;;;6316041;28;20374;-79
2023/03/17 08:11:48;;;;;;;7.07;6.37;;;6.00;50.20;;;;;;6305954;28;20241;-78
2023/03/17 08:14:52;;;;;;;6.80;6.30;;;6.30;49.40;;;;;;6315982;28;20237;-79
2023/03/17 08:17:56;;;;;;;7.47;6.83;;;6.60;49.30;;;;;;6345154;28;20293;-80
2023/03/17 08:20:59;;;;;;;8.23;6.77;;;6.60;49.20;;;;;;6343817;28;20262;-77
2023/03/17 08:24:04;;;;;;;7.20;6.27;;;6.70;48.80;;;;;;6340507;28;20424;-78
2023/03/17 08:27:07;;;;;;;8.30;7.50;;;6.70;48.90;;;;;;6340498;28;20282;-77
2023/03/17 08:30:13;;;;;;;8.07;6.93;;;6.90;49.10;;;;;;6335601;28;20216;-77
2023/03/17 08:33:16;;;;;;;10.10;6.87;;;7.00;48.90;;;;;;6344646;28;20257;-76
2023/03/17 08:36:20;;;;;;;7.13;6.47;;;7.20;48.40;;;;;;6333062;28;20339;-76
2023/03/17 08:39:24;;;;;;;7.53;5.83;;;7.40;48.20;;;;;;6332123;27;20224;-78
2023/03/17 08:42:27;;;;;;;7.80;6.27;;;7.50;48.30;;;;;;6334804;27;20241;-79
2023/03/17 08:45:31;;;;;;;7.20;6.60;;;7.40;48.00;;;;;;6343920;27;20422;-79
2023/03/17 08:48:36;;;;;;;9.63;8.03;;;7.30;48.50;;;;;;6345414;27;20231;-80
2023/03/17 08:51:39;;;;;;;7.40;6.80;;;7.40;48.40;;;;;;6350608;27;20228;-79
2023/03/17 08:54:43;;;;;;;7.30;6.70;;;7.50;48.20;;;;;;6345337;28;20248;-81
2023/03/17 08:57:46;;;;;;;7.63;6.47;;;7.40;48.20;;;;;;6345619;28;20236;-77
2023/03/17 09:00:52;;;;;;;7.50;6.90;;;7.60;47.60;;;;;;6348434;28;20217;-76
2023/03/17 09:03:55;;;;;;;6.60;5.97;;;7.60;48.00;;;;;;6336925;27;20276;-79
2023/03/17 09:06:58;;;;;;;7.87;6.93;;;7.70;47.60;;;;;;6323072;28;20240;-80
2023/03/17 09:10:09;;;;;;;6.43;6.03;;;7.80;47.70;;;;;;6354861;28;20250;-78
2023/03/17 09:13:12;;;;;;;7.50;6.20;;;7.90;47.80;;;;;;6342531;27;20281;-80
2023/03/17 09:16:18;;;;;;;7.30;6.70;;;8.00;48.00;;;;;;6345663;27;20420;-79
2023/03/17 09:19:21;;;;;;;7.03;6.43;;;8.00;47.60;;;;;;6323492;28;20219;-77
2023/03/17 09:22:26;;;;;;;8.33;7.70;;;8.00;47.50;;;;;;6313214;27;20229;-79
2023/03/17 09:25:29;;;;;;;8.63;6.60;;;8.00;47.90;;;;;;6330893;28;20378;-79
2023/03/17 09:28:33;;;;;;;7.13;6.43;;;8.10;47.90;;;;;;6343038;28;20237;-80
2023/03/17 09:31:37;;;;;;;10.70;9.70;;;8.30;47.00;;;;;;6344584;28;20251;-79
2023/03/17 09:34:41;;;;;;;6.97;6.50;;;8.40;47.00;;;;;;6347141;28;20238;-82
2023/03/17 09:37:44;;;;;;;8.63;6.23;;;8.60;46.80;;;;;;6345363;28;20255;-78
2023/03/17 09:40:49;;;;;;;6.70;6.13;;;8.70;46.70;;;;;;6346709;27;20228;-79
2023/03/17 09:44:01;;;;;;;7.67;6.87;;;8.80;46.70;;;;;;6340828;28;20317;-79
2023/03/17 09:47:17;;;;;;;6.73;6.20;;;8.60;46.90;;;;;;6296968;28;20330;-79
2023/03/17 09:50:25;;;;;;;6.53;6.03;;;8.80;47.10;;;;;;6302483;28;20251;-78
2023/03/17 09:53:33;;;;;;;5.90;5.60;;;9.10;46.90;;;;;;6306711;28;20242;-80
2023/03/17 09:56:38;;;;;;;6.33;5.83;;;9.50;46.10;;;;;;6313229;28;20658;-80
2023/03/17 09:59:43;;;;;;;6.70;5.90;;;9.80;45.50;;;;;;6314458;28;20236;-79
2023/03/17 10:02:48;;;;;;;6.53;6.03;;;10.00;45.20;;;;;;6312838;28;20720;-79
2023/03/17 10:05:53;;;;;;;6.10;5.60;;;10.00;45.40;;;;;;6313028;28;20316;-78
2023/03/17 10:09:10;;;;;;;5.97;5.60;;;10.20;44.60;;;;;;6309363;28;20231;-78
2023/03/17 10:12:20;;;;;;;6.10;5.70;;;10.30;44.70;;;;;;6304305;28;20267;-78
2023/03/17 10:15:31;;;;;;;5.90;5.23;;;10.40;44.60;;;;;;6313834;28;20236;-79
2023/03/17 10:18:43;;;;;;;5.57;5.17;;;10.60;44.10;;;;;;6302623;28;20231;-79
2023/03/17 10:21:51;;;;;;;9.17;5.93;;;10.60;44.50;;;;;;6311396;28;20240;-80
2023/03/17 10:24:59;;;;;;;5.13;4.83;;;10.90;44.10;;;;;;6311390;28;20820;-77
2023/03/17 10:28:14;;;;;;;6.00;5.50;;;11.10;44.00;;;;;;6316459;28;20239;-78
2023/03/17 10:31:20;;;;;;;6.73;5.97;;;11.10;43.90;;;;;;6315115;28;20232;-78
2023/03/17 10:34:27;;;;;;;6.43;5.97;;;11.00;44.30;;;;;;6315454;28;20235;-77
2023/03/17 10:37:35;;;;;;;8.27;5.50;;;10.90;44.00;;;;;;6304757;28;20229;-77
2023/03/17 10:40:38;;;;;;;6.30;5.60;;;10.90;44.10;;;;;;6304998;28;20250;-77
2023/03/17 10:43:49;;;;;;;5.97;5.43;;;11.00;44.50;;;;;;6298981;28;20252;-79
2023/03/17 10:46:54;;;;;;;7.73;5.90;;;11.10;44.00;;;;;;6312781;28;20240;-76
2023/03/17 10:50:02;;;;;;;5.17;4.87;;;11.40;44.00;;;;;;6312133;28;20224;-78
2023/03/17 10:53:08;;;;;;;5.70;5.20;;;11.50;44.40;;;;;;6313937;28;20988;-80
2023/03/17 10:56:19;;;;;;;5.80;5.40;;;11.60;43.90;;;;;;6316453;28;20728;-76
2023/03/17 10:59:28;;;;;;;6.00;5.20;;;11.70;43.90;;;;;;6291838;28;20362;-78
2023/03/17 11:02:44;;;;;;;4.80;4.60;;;11.60;43.60;;;;;;6299470;28;20232;-76
2023/03/17 11:06:00;;;;;;;5.67;5.30;;;11.80;43.60;;;;;;6308399;28;20233;-77
2023/03/17 11:09:08;;;;;;;6.13;5.50;;;11.90;43.90;;;;;;6310573;28;20233;-78
2023/03/17 11:12:24;;;;;;;5.40;5.00;;;11.90;43.40;;;;;;6300546;28;20263;-80
2023/03/17 11:15:33;;;;;;;5.53;5.03;;;12.20;43.50;;;;;;6293160;28;20861;-77
2023/03/17 11:18:38;;;;;;;5.77;5.23;;;12.30;43.20;;;;;;6305630;28;20244;-77
2023/03/17 11:21:53;;;;;;;5.07;4.67;;;12.30;43.30;;;;;;6312225;28;20383;-76
2023/03/17 11:25:06;;;;;;;7.30;4.50;;;12.50;43.40;;;;;;6313661;28;20229;-77
2023/03/17 11:28:19;;;;;;;5.23;4.93;;;12.30;43.40;;;;;;6314953;28;20755;-79
2023/03/17 11:31:31;;;;;;;7.27;5.37;;;12.50;44.10;;;;;;6313730;28;20240;-77
2023/03/17 11:34:47;;;;;;;5.17;4.77;;;12.50;43.40;;;;;;6307876;28;20732;-76
2023/03/17 11:38:08;;;;;;;5.23;4.80;;;12.70;43.50;;;;;;6306152;28;20329;-77
2023/03/17 11:41:43;;;;;;;6.77;5.20;;;12.90;43.30;;;;;;6302525;28;20725;-78
2023/03/17 11:45:08;;;;;;;5.50;4.87;;;13.10;43.20;;;;;;6285183;28;20229;-76
2023/03/17 11:48:22;;;;;;;5.17;4.80;;;13.10;43.00;;;;;;6298448;28;20228;-77
2023/03/17 11:51:32;;;;;;;5.50;4.63;;;13.10;43.10;;;;;;6313011;28;20697;-78
2023/03/17 11:54:46;;;;;;;4.77;4.43;;;13.20;43.30;;;;;;6310883;28;20603;-77
2023/03/17 11:57:55;;;;;;;4.67;4.27;;;13.50;43.30;;;;;;6319096;28;20233;-78
2023/03/17 12:01:07;;;;;;;4.50;4.13;;;13.30;42.60;;;;;;6313281;27;20375;-79
2023/03/17 12:04:19;;;;;;;4.90;4.50;;;13.30;42.60;;;;;;6304264;28;20790;-78
2023/03/17 12:07:25;;;;;;;4.43;4.13;;;13.30;42.90;;;;;;6304779;28;20229;-78
2023/03/17 12:10:37;;;;;;;4.43;4.07;;;13.10;42.80;;;;;;6324981;27;20253;-78
2023/03/17 12:13:46;;;;;;;4.43;4.07;;;13.10;43.20;;;;;;6315570;28;20755;-80
2023/03/17 12:16:54;;;;;;;4.80;4.30;;;13.10;43.00;;;;;;6316498;28;20252;-77
2023/03/17 12:20:07;;;;;;;4.20;4.00;;;13.30;42.70;;;;;;6319581;27;20234;-78
2023/03/17 12:23:16;;;;;;;5.83;4.37;;;13.30;42.80;;;;;;6312700;27;20239;-78
2023/03/17 12:26:28;;;;;;;4.40;4.10;;;13.50;42.30;;;;;;6338105;27;20845;-79
2023/03/17 12:29:42;;;;;;;4.27;3.90;;;13.30;42.60;;;;;;6314764;28;20351;-80
2023/03/17 12:32:52;;;;;;;4.30;4.03;;;13.30;42.60;;;;;;6274906;28;20702;-79
2023/03/17 12:35:57;;;;;;;4.43;4.20;;;13.50;42.20;;;;;;6303912;28;20356;-79
2023/03/17 12:39:04;;;;;;;4.70;4.40;;;13.50;42.10;;;;;;6294881;28;20358;-79
2023/03/17 12:42:22;;;;;;;5.60;5.10;;;13.60;42.10;;;;;;6323682;28;20256;-79
2023/03/17 12:45:52;;;;;;;6.37;5.17;;;13.60;42.40;;;;;;6291295;28;20236;-81
2023/03/17 12:49:28;;;;;;;4.97;4.53;;;13.60;42.70;;;;;;6304368;28;20257;-80
2023/03/17 12:53:01;;;;;;;4.53;4.20;;;13.70;43.20;;;;;;6274858;28;20244;-78
2023/03/17 12:56:11;;;;;;;4.83;4.60;;;13.80;42.60;;;;;;6295159;28;20224;-79
2023/03/17 12:59:19;;;;;;;4.60;4.20;;;13.90;43.00;;;;;;6314256;28;25428;-79
2023/03/17 13:02:36;;;;;;;5.00;4.63;;;14.00;42.30;;;;;;6311112;28;20237;-77
2023/03/17 13:05:47;;;;;;;4.20;4.00;;;14.10;42.20;;;;;;6307340;28;20311;-78
2023/03/17 13:08:51;;;;;;;4.40;4.23;;;13.90;42.20;;;;;;6312700;28;20232;-78
2023/03/17 13:11:54;;;;;;;8.03;4.00;;;14.00;42.20;;;;;;6313012;28;20247;-80
2023/03/17 13:14:59;;;;;;;4.67;4.27;;;14.00;42.20;;;;;;6312187;28;20267;-77
2023/03/17 13:18:45;;;;;;;3.73;3.53;;;14.10;42.30;;;;;;6313208;28;20232;-78
2023/03/17 13:22:17;;;;;;;5.97;4.40;;;14.10;42.40;;;;;;6288241;28;21119;-78
2023/03/17 13:25:33;;;;;;;9.30;4.60;;;14.00;42.40;;;;;;6312893;28;20224;-78
2023/03/17 13:28:42;;;;;;;9.33;4.57;;;13.90;42.50;;;;;;6313702;28;20236;-79
2023/03/17 13:31:46;;;;;;;4.27;3.97;;;14.00;42.10;;;;;;6317856;27;20872;-77
2023/03/17 13:34:52;;;;;;;6.27;4.10;;;14.10;41.80;;;;;;6312128;28;20225;-80
2023/03/17 13:38:30;;;;;;;4.63;4.33;;;14.10;42.60;;;;;;6311961;28;21092;-79
2023/03/17 13:41:56;;;;;;;4.93;4.53;;;14.10;42.30;;;;;;6302157;28;20687;-77
2023/03/17 13:45:36;;;;;;;4.60;4.30;;;14.00;42.60;;;;;;6306499;28;20225;-78
2023/03/17 13:48:44;;;;;;;4.53;4.23;;;13.90;42.30;;;;;;6300575;28;20236;-77
2023/03/17 13:51:52;;;;;;;4.17;3.80;;;13.90;42.20;;;;;;6310953;28;20240;-77
2023/03/17 13:55:06;;;;;;;4.80;4.40;;;13.80;42.80;;;;;;6307438;28;20844;-78
2023/03/17 13:58:23;;;;;;;4.43;4.00;;;13.90;42.20;;;;;;6294289;28;20229;-77
2023/03/17 14:01:28;;;;;;;6.10;3.63;;;13.90;42.60;;;;;;6305108;28;20251;-79
2023/03/17 14:04:45;;;;;;;3.60;3.40;;;13.90;42.70;;;;;;6317163;28;20791;-78
2023/03/17 14:07:53;;;;;;;4.23;3.93;;;13.80;42.60;;;;;;6287920;28;20234;-78
2023/03/17 14:10:58;;;;;;;9.33;7.73;;;13.90;42.30;;;;;;6306026;28;21003;-78
2023/03/17 14:14:15;;;;;;;6.80;4.23;;;13.90;42.40;;;;;;6297491;28;20242;-78
2023/03/17 14:17:40;;;;;;;4.23;4.00;;;14.00;42.20;;;;;;6315219;28;20328;-79
2023/03/17 14:20:55;;;;;;;4.43;4.00;;;14.00;42.30;;;;;;6313850;28;20247;-78
2023/03/17 14:24:00;;;;;;;4.03;3.80;;;14.00;42.10;;;;;;6314648;28;20233;-78
2023/03/17 14:27:13;;;;;;;3.97;3.77;;;13.90;42.50;;;;;;6292049;28;20724;-77
2023/03/17 14:30:21;;;;;;;4.43;4.17;;;13.90;42.80;;;;;;6296391;27;20231;-79
2023/03/17 14:33:27;;;;;;;5.40;3.77;;;13.90;42.60;;;;;;6334768;27;20896;-77
2023/03/17 14:36:33;;;;;;;4.40;4.10;;;13.80;42.90;;;;;;6290460;28;20259;-78
2023/03/17 14:39:44;;;;;;;8.90;4.17;;;13.70;43.30;;;;;;6293911;28;20225;-79
2023/03/17 14:42:48;;;;;;;4.73;4.33;;;13.90;43.20;;;;;;6290870;28;20382;-79
2023/03/17 14:45:52;;;;;;;4.37;4.00;;;13.90;43.20;;;;;;6302908;28;20228;-78
2023/03/17 14:48:59;;;;;;;4.23;3.93;;;13.80;43.40;;;;;;6312275;28;20695;-79
2023/03/17 14:52:04;;;;;;;5.70;4.13;;;13.70;43.00;;;;;;6307625;28;20229;-78
2023/03/17 14:55:12;;;;;;;5.13;4.80;;;13.90;42.90;;;;;;6314172;28;20243;-79
2023/03/17 14:58:22;;;;;;;4.67;4.47;;;13.80;43.40;;;;;;6314510;28;20336;-77
2023/03/17 15:01:36;;;;;;;4.00;3.80;;;13.80;43.10;;;;;;6310654;28;20228;-79
2023/03/17 15:04:51;;;;;;;4.43;4.13;;;13.70;43.00;;;;;;6307304;28;20320;-78
2023/03/17 15:08:05;;;;;;;4.90;3.90;;;13.70;43.00;;;;;;6309632;28;20225;-79
2023/03/17 15:11:32;;;;;;;4.03;3.73;;;13.80;42.90;;;;;;6315292;27;20242;-80
2023/03/17 15:14:41;;;;;;;4.53;4.30;;;13.70;43.30;;;;;;6275175;28;20272;-76
2023/03/17 15:17:43;;;;;;;4.20;3.93;;;13.60;43.30;;;;;;6295342;28;20243;-79
2023/03/17 15:20:47;;;;;;;4.50;4.10;;;13.70;43.40;;;;;;6290907;28;20229;-79
2023/03/17 15:23:51;;;;;;;4.90;4.43;;;13.50;43.00;;;;;;6313973;28;20233;-77
2023/03/17 15:27:02;;;;;;;4.70;4.30;;;13.50;43.20;;;;;;6303350;27;20228;-78
2023/03/17 15:30:07;;;;;;;4.17;3.97;;;13.50;43.30;;;;;;6319801;27;20320;-77
2023/03/17 15:33:21;;;;;;;4.50;4.20;;;13.40;43.40;;;;;;6291938;28;20241;-78
2023/03/17 15:36:24;;;;;;;3.70;3.40;;;13.30;43.40;;;;;;6310537;28;20258;-78
2023/03/17 15:39:36;;;;;;;4.63;4.33;;;13.30;43.00;;;;;;6311858;28;20629;-79
2023/03/17 15:42:42;;;;;;;5.57;4.17;;;13.30;43.30;;;;;;6314491;28;20237;-78
2023/03/17 15:45:45;;;;;;;5.37;4.67;;;13.20;43.50;;;;;;6315999;28;20246;-78
2023/03/17 15:48:52;;;;;;;8.20;4.40;;;13.10;43.40;;;;;;6318462;28;20233;-78
2023/03/17 15:51:55;;;;;;;4.33;4.13;;;13.10;43.40;;;;;;6319116;27;20239;-77
2023/03/17 15:54:59;;;;;;;4.37;4.07;;;13.10;43.80;;;;;;6314798;28;20251;-81
2023/03/17 15:58:02;;;;;;;5.07;4.40;;;13.10;43.40;;;;;;6313572;28;20808;-78
2023/03/17 16:01:06;;;;;;;4.63;4.43;;;13.10;43.20;;;;;;6315864;28;20235;-78
2023/03/17 16:04:09;;;;;;;4.20;3.90;;;13.00;43.60;;;;;;6313245;28;20233;-78
2023/03/17 16:07:13;;;;;;;5.37;4.87;;;13.00;43.70;;;;;;6313622;27;20275;-78
2023/03/17 16:10:21;;;;;;;4.80;4.30;;;13.00;44.20;;;;;;6316669;28;20232;-78
2023/03/17 16:13:24;;;;;;;4.43;4.20;;;12.90;44.40;;;;;;6313759;28;20252;-78
2023/03/17 16:16:31;;;;;;;4.50;4.20;;;12.90;44.10;;;;;;6313491;27;20887;-78
2023/03/17 16:19:34;;;;;;;4.43;4.17;;;12.80;43.90;;;;;;6316002;28;20657;-79
2023/03/17 16:22:40;;;;;;;4.17;3.87;;;12.80;44.10;;;;;;6309034;28;20728;-78